createdAt,value
2018-05-31T00:00:10.403Z,54.00
2018-05-31T00:02:39.808Z,54.10
2018-05-31T00:05:08.040Z,54.00
2018-05-31T00:07:36.293Z,55.10
2018-05-31T00:10:04.575Z,54.60
2018-05-31T00:12:32.864Z,53.70
2018-05-31T00:15:01.112Z,53.60
2018-05-31T00:17:29.395Z,54.30
2018-05-31T00:19:57.655Z,53.50
2018-05-31T00:22:25.936Z,53.50
2018-05-31T00:24:54.819Z,53.00
2018-05-31T00:27:23.072Z,53.40
2018-05-31T00:29:52.116Z,53.60
2018-05-31T00:32:20.396Z,53.50
2018-05-31T00:34:48.636Z,53.50
2018-05-31T00:37:16.887Z,53.50
2018-05-31T00:39:45.941Z,53.60
2018-05-31T00:42:14.192Z,53.50
2018-05-31T00:44:42.456Z,53.50
2018-05-31T00:47:10.704Z,53.80
2018-05-31T00:49:38.979Z,53.50
2018-05-31T00:52:07.246Z,53.80
2018-05-31T00:54:35.486Z,54.80
2018-05-31T00:57:03.855Z,54.60
2018-05-31T00:59:32.108Z,54.20
2018-05-31T01:02:00.392Z,54.70
2018-05-31T01:04:28.664Z,54.40
2018-05-31T01:06:56.931Z,54.40
2018-05-31T01:09:25.939Z,55.30
2018-05-31T01:11:54.227Z,55.30
2018-05-31T01:14:22.464Z,55.50
2018-05-31T01:16:50.733Z,56.00
2018-05-31T01:19:19.764Z,56.20
2018-05-31T01:21:48.014Z,56.10
2018-05-31T01:24:16.266Z,56.30
2018-05-31T01:26:45.296Z,56.10
2018-05-31T01:29:13.663Z,56.10
2018-05-31T01:31:41.928Z,56.30
2018-05-31T01:34:10.931Z,56.80
2018-05-31T01:36:39.219Z,56.70
2018-05-31T01:39:08.271Z,56.80
2018-05-31T01:41:36.796Z,57.10
2018-05-31T01:44:05.054Z,57.20
2018-05-31T01:46:33.308Z,57.30
2018-05-31T01:49:02.457Z,57.70
2018-05-31T01:51:30.702Z,57.70
2018-05-31T01:53:58.961Z,57.80
2018-05-31T01:56:27.983Z,58.30
2018-05-31T01:58:56.240Z,58.30
2018-05-31T02:01:24.489Z,58.20
2018-05-31T02:03:53.520Z,58.80
2018-05-31T02:06:21.763Z,59.00
2018-05-31T02:08:50.796Z,59.20
2018-05-31T02:11:19.071Z,59.20
2018-05-31T02:13:47.340Z,59.10
2018-05-31T02:16:15.614Z,59.00
2018-05-31T02:18:43.870Z,58.70
2018-05-31T02:21:12.124Z,58.70
2018-05-31T02:23:41.143Z,58.90
2018-05-31T02:26:09.507Z,58.90
2018-05-31T02:28:38.527Z,58.10
2018-05-31T02:31:06.786Z,58.20
2018-05-31T02:33:35.867Z,58.70
2018-05-31T02:36:04.883Z,58.40
2018-05-31T02:38:33.143Z,58.30
2018-05-31T02:41:02.364Z,58.70
2018-05-31T02:43:30.611Z,58.60
2018-05-31T02:45:59.648Z,58.40
2018-05-31T02:48:27.919Z,58.40
2018-05-31T02:50:56.160Z,58.70
2018-05-31T02:53:24.433Z,58.30
2018-05-31T02:55:52.689Z,58.10
2018-05-31T02:58:21.971Z,57.80
2018-05-31T03:00:50.218Z,57.80
2018-05-31T03:03:18.477Z,57.70
2018-05-31T03:05:46.876Z,57.70
2018-05-31T03:08:15.127Z,57.70
2018-05-31T03:10:43.380Z,57.70
2018-05-31T03:13:12.412Z,58.10
2018-05-31T03:15:40.662Z,58.00
2018-05-31T03:18:08.928Z,58.20
2018-05-31T03:20:37.180Z,58.20
2018-05-31T03:23:05.436Z,58.30
2018-05-31T03:25:33.684Z,58.60
2018-05-31T03:28:01.967Z,58.90
2018-05-31T03:30:30.264Z,58.70
2018-05-31T03:32:58.475Z,58.60
2018-05-31T03:35:26.730Z,58.70
2018-05-31T03:37:55.753Z,59.00
2018-05-31T03:40:24.454Z,58.90
2018-05-31T03:42:52.711Z,59.20
2018-05-31T03:45:20.965Z,59.10
2018-05-31T03:47:50.291Z,59.00
2018-05-31T03:50:18.551Z,59.00
2018-05-31T03:52:46.810Z,59.10
2018-05-31T03:55:15.856Z,59.20
2018-05-31T03:57:44.119Z,59.20
2018-05-31T04:00:12.399Z,59.20
2018-05-31T04:02:40.636Z,59.30
2018-05-31T04:05:09.674Z,59.10
2018-05-31T04:07:37.937Z,59.00
2018-05-31T04:10:06.172Z,59.10
2018-05-31T04:12:34.434Z,58.90
2018-05-31T04:15:02.680Z,58.70
2018-05-31T04:17:30.930Z,58.80
2018-05-31T04:19:59.187Z,58.90
2018-05-31T04:22:27.474Z,59.20
2018-05-31T04:24:56.492Z,59.90
2018-05-31T04:27:25.061Z,59.80
2018-05-31T04:29:53.318Z,60.20
2018-05-31T04:32:21.572Z,60.70
2018-05-31T04:34:50.600Z,61.40
2018-05-31T04:37:19.044Z,61.30
2018-05-31T04:39:48.053Z,61.70
2018-05-31T04:42:16.294Z,61.70
2018-05-31T04:44:44.555Z,61.20
2018-05-31T04:47:12.798Z,60.90
2018-05-31T04:49:41.060Z,60.60
2018-05-31T04:52:09.310Z,60.60
2018-05-31T04:54:38.350Z,60.30
2018-05-31T04:57:06.587Z,60.10
2018-05-31T04:59:34.982Z,60.20
2018-05-31T05:02:03.244Z,60.10
2018-05-31T05:04:31.498Z,59.80
2018-05-31T05:07:00.528Z,60.60
2018-05-31T05:09:28.788Z,60.00
2018-05-31T05:11:57.169Z,60.10
2018-05-31T05:14:25.415Z,59.50
2018-05-31T05:16:54.430Z,60.00
2018-05-31T05:19:22.707Z,59.40
2018-05-31T05:21:50.957Z,59.90
2018-05-31T05:24:19.275Z,59.80
2018-05-31T05:26:47.591Z,59.80
2018-05-31T05:29:15.843Z,59.90
2018-05-31T05:31:44.249Z,59.60
2018-05-31T05:34:12.502Z,59.60
2018-05-31T05:36:40.747Z,59.20
2018-05-31T05:39:09.012Z,59.10
2018-05-31T05:41:37.320Z,59.00
2018-05-31T05:44:05.580Z,58.90
2018-05-31T05:46:33.829Z,58.70
2018-05-31T05:49:02.341Z,59.10
2018-05-31T05:51:30.642Z,58.30
2018-05-31T05:53:58.851Z,58.30
2018-05-31T05:56:27.923Z,58.30
2018-05-31T05:58:56.132Z,58.30
2018-05-31T06:01:24.535Z,58.30
2018-05-31T06:03:52.792Z,58.30
2018-05-31T06:06:21.256Z,58.40
2018-05-31T06:08:50.288Z,58.50
2018-05-31T06:11:18.527Z,58.50
2018-05-31T06:13:47.556Z,58.60
2018-05-31T06:16:16.578Z,58.50
2018-05-31T06:18:44.854Z,58.50
2018-05-31T06:21:13.131Z,58.60
2018-05-31T06:23:41.384Z,57.50
2018-05-31T06:26:09.641Z,58.60
2018-05-31T06:28:37.900Z,58.60
2018-05-31T06:31:06.146Z,58.10
2018-05-31T06:33:34.463Z,58.00
2018-05-31T06:36:02.659Z,57.30
2018-05-31T06:38:30.903Z,57.10
2018-05-31T06:40:59.160Z,56.50
2018-05-31T06:43:28.193Z,55.60
2018-05-31T06:45:56.605Z,55.50
2018-05-31T06:48:24.855Z,55.50
2018-05-31T06:50:53.099Z,55.30
2018-05-31T06:53:21.369Z,55.70
2018-05-31T06:55:49.614Z,55.70
2018-05-31T06:58:17.970Z,55.10
2018-05-31T07:00:46.231Z,54.60
2018-05-31T07:03:14.495Z,54.10
2018-05-31T07:05:42.728Z,54.10
2018-05-31T07:08:11.754Z,53.20
2018-05-31T07:10:40.021Z,53.10
2018-05-31T07:13:08.280Z,51.70
2018-05-31T07:15:36.539Z,53.50
2018-05-31T07:18:05.575Z,50.40
2018-05-31T07:20:34.589Z,49.70
2018-05-31T07:23:02.832Z,49.70
2018-05-31T07:25:31.296Z,48.40
2018-05-31T07:27:59.541Z,49.00
2018-05-31T07:30:27.776Z,49.40
2018-05-31T07:32:56.165Z,49.10
2018-05-31T07:35:24.413Z,50.10
2018-05-31T07:37:52.680Z,50.00
2018-05-31T07:40:20.956Z,49.50
2018-05-31T07:42:49.228Z,49.20
2018-05-31T07:45:17.492Z,49.80
2018-05-31T07:47:46.524Z,49.30
2018-05-31T07:50:14.783Z,49.20
2018-05-31T07:52:43.030Z,48.60
2018-05-31T07:55:12.069Z,48.60
2018-05-31T07:57:40.323Z,48.60
2018-05-31T08:00:09.399Z,49.20
2018-05-31T08:02:37.668Z,49.10
2018-05-31T08:05:05.983Z,48.80
2018-05-31T08:07:34.230Z,48.60
2018-05-31T08:10:02.656Z,48.50
2018-05-31T08:12:30.908Z,47.10
2018-05-31T08:14:59.156Z,47.30
2018-05-31T08:17:27.428Z,47.40
2018-05-31T08:19:55.685Z,47.40
2018-05-31T08:22:24.190Z,48.00
2018-05-31T08:24:52.448Z,47.10
2018-05-31T08:27:21.468Z,48.30
2018-05-31T08:29:49.735Z,48.20
2018-05-31T08:32:17.984Z,47.60
2018-05-31T08:34:47.020Z,48.20
2018-05-31T08:37:15.272Z,48.00
2018-05-31T08:39:43.530Z,48.00
2018-05-31T08:42:12.560Z,47.80
2018-05-31T08:44:41.602Z,47.80
2018-05-31T08:47:09.856Z,47.70
2018-05-31T08:49:38.186Z,47.30
2018-05-31T08:52:06.427Z,46.80
2018-05-31T08:54:34.652Z,47.20
2018-05-31T08:57:03.064Z,47.20
2018-05-31T08:59:31.335Z,46.80
2018-05-31T09:01:59.574Z,47.10
2018-05-31T09:04:27.831Z,46.80
2018-05-31T09:06:56.092Z,47.10
2018-05-31T09:09:24.357Z,46.50
2018-05-31T09:11:52.593Z,45.70
2018-05-31T09:14:20.836Z,46.60
2018-05-31T09:16:49.099Z,46.70
2018-05-31T09:19:18.124Z,45.20
2018-05-31T09:21:47.137Z,46.30
2018-05-31T09:24:15.395Z,46.30
2018-05-31T09:26:44.414Z,44.90
2018-05-31T09:29:12.672Z,44.90
2018-05-31T09:31:40.929Z,45.40
2018-05-31T09:34:09.188Z,44.80
2018-05-31T09:36:37.440Z,45.20
2018-05-31T09:39:06.452Z,45.00
2018-05-31T09:41:34.715Z,44.90
2018-05-31T09:44:04.043Z,43.90
2018-05-31T09:46:32.314Z,43.80
2018-05-31T09:49:01.305Z,44.00
2018-05-31T09:51:29.986Z,44.00
2018-05-31T09:53:58.987Z,44.90
2018-05-31T09:56:27.248Z,44.80
2018-05-31T09:58:55.519Z,44.90
2018-05-31T10:01:23.786Z,45.30
2018-05-31T10:03:52.812Z,44.00
2018-05-31T10:06:21.153Z,43.80
2018-05-31T10:08:50.164Z,43.80
2018-05-31T10:11:18.425Z,43.90
2018-05-31T10:13:47.496Z,43.80
2018-05-31T10:16:15.734Z,43.70
2018-05-31T10:18:44.000Z,43.80
2018-05-31T10:21:14.042Z,44.30
2018-05-31T10:23:42.311Z,44.30
2018-05-31T10:26:10.564Z,44.60
2018-05-31T10:28:38.807Z,44.00
2018-05-31T10:31:07.836Z,42.80
2018-05-31T10:33:36.089Z,42.80
2018-05-31T10:36:04.343Z,44.60
2018-05-31T10:38:32.612Z,43.70
2018-05-31T10:41:00.855Z,43.80
2018-05-31T10:43:29.149Z,43.10
2018-05-31T10:45:57.410Z,42.20
2018-05-31T10:48:25.660Z,44.90
2018-05-31T10:50:53.931Z,42.00
2018-05-31T10:53:23.751Z,41.50
2018-05-31T10:55:52.020Z,41.50
2018-05-31T10:58:20.278Z,43.40
2018-05-31T11:00:48.542Z,40.70
2018-05-31T11:03:17.578Z,41.40
2018-05-31T11:05:45.876Z,41.30
2018-05-31T11:08:14.166Z,42.20
2018-05-31T11:10:42.534Z,41.90
2018-05-31T11:13:10.779Z,41.30
2018-05-31T11:15:39.052Z,41.10
2018-05-31T11:18:07.312Z,40.90
2018-05-31T11:20:35.590Z,42.30
2018-05-31T11:23:03.838Z,40.70
2018-05-31T11:25:32.867Z,41.30
2018-05-31T11:28:01.209Z,41.30
2018-05-31T11:30:36.317Z,42.10
2018-05-31T11:33:04.727Z,39.60
2018-05-31T11:35:33.732Z,41.10
2018-05-31T11:38:01.978Z,41.10
2018-05-31T11:40:30.995Z,41.30
2018-05-31T11:42:59.255Z,41.20
2018-05-31T11:45:28.317Z,39.00
2018-05-31T11:47:56.558Z,39.00
2018-05-31T11:50:24.828Z,40.20
2018-05-31T11:52:53.101Z,40.00
2018-05-31T11:55:21.368Z,38.80
2018-05-31T11:57:49.616Z,40.00
2018-05-31T12:00:18.624Z,38.30
2018-05-31T12:02:46.892Z,38.20
2018-05-31T12:05:15.667Z,40.10
2018-05-31T12:07:44.716Z,41.60
2018-05-31T12:10:12.959Z,41.40
2018-05-31T12:12:41.245Z,40.60
2018-05-31T12:15:09.617Z,41.40
2018-05-31T12:17:37.909Z,41.80
2018-05-31T12:20:06.108Z,43.10
2018-05-31T12:22:34.367Z,43.30
2018-05-31T12:25:02.652Z,44.00
2018-05-31T12:27:31.085Z,44.00
2018-05-31T12:29:59.334Z,43.90
2018-05-31T12:32:28.349Z,43.40
2018-05-31T12:34:56.871Z,43.40
2018-05-31T12:37:25.129Z,44.10
2018-05-31T12:39:53.381Z,44.10
2018-05-31T12:42:21.794Z,44.10
2018-05-31T12:44:50.808Z,43.10
2018-05-31T12:47:19.083Z,43.00
2018-05-31T12:49:47.357Z,44.30
2018-05-31T12:52:15.613Z,44.30
2018-05-31T12:54:44.023Z,42.50
2018-05-31T12:57:12.272Z,41.70
2018-05-31T12:59:40.553Z,43.10
2018-05-31T13:02:08.826Z,43.50
2018-05-31T13:04:37.079Z,43.50
2018-05-31T13:07:05.333Z,43.00
2018-05-31T13:09:33.611Z,42.80
2018-05-31T13:12:01.879Z,41.60
2018-05-31T13:14:30.147Z,42.50
2018-05-31T13:16:59.146Z,43.10
2018-05-31T13:19:27.408Z,43.00
2018-05-31T13:21:56.781Z,43.50
2018-05-31T13:24:25.025Z,43.40
2018-05-31T13:26:53.278Z,43.20
2018-05-31T13:29:21.540Z,43.70
2018-05-31T13:31:50.551Z,44.30
2018-05-31T13:34:19.197Z,44.20
2018-05-31T13:36:47.417Z,44.30
2018-05-31T13:39:15.667Z,43.70
2018-05-31T13:41:44.182Z,42.90
2018-05-31T13:44:13.203Z,44.10
2018-05-31T13:46:41.459Z,44.00
2018-05-31T13:49:09.736Z,44.10
2018-05-31T13:51:38.012Z,43.90
2018-05-31T13:54:06.281Z,43.50
2018-05-31T13:56:34.547Z,44.40
2018-05-31T13:59:02.794Z,43.80
2018-05-31T14:01:31.048Z,44.50
2018-05-31T14:03:59.368Z,45.20
2018-05-31T14:06:27.606Z,45.30
2018-05-31T14:08:56.647Z,44.50
2018-05-31T14:11:24.922Z,44.50
2018-05-31T14:13:53.318Z,43.60
2018-05-31T14:16:21.572Z,45.10
2018-05-31T14:18:49.821Z,45.00
2018-05-31T14:21:18.228Z,45.40
2018-05-31T14:23:46.483Z,45.30
2018-05-31T14:26:14.726Z,45.80
2018-05-31T14:28:43.990Z,45.10
2018-05-31T14:31:12.255Z,44.90
2018-05-31T14:33:40.544Z,46.50
2018-05-31T14:36:10.320Z,46.10
2018-05-31T14:38:38.583Z,45.20
2018-05-31T14:41:06.851Z,44.00
2018-05-31T14:43:35.106Z,44.10
2018-05-31T14:46:04.344Z,43.80
2018-05-31T14:48:32.600Z,43.80
2018-05-31T14:51:00.863Z,44.20
2018-05-31T14:53:29.890Z,44.90
2018-05-31T14:55:58.139Z,44.70
2018-05-31T14:58:27.146Z,44.10
2018-05-31T15:00:55.412Z,44.00
2018-05-31T15:03:24.224Z,44.20
2018-05-31T15:05:52.714Z,44.20
2018-05-31T15:08:20.962Z,44.20
2018-05-31T15:10:49.232Z,44.70
2018-05-31T15:13:17.594Z,43.30
2018-05-31T15:15:46.609Z,44.30
2018-05-31T15:18:14.849Z,44.20
2018-05-31T15:20:43.894Z,43.60
2018-05-31T15:23:12.202Z,43.60
2018-05-31T15:25:40.497Z,42.70
2018-05-31T15:28:09.526Z,42.20
2018-05-31T15:30:37.799Z,42.20
2018-05-31T15:33:06.035Z,42.60
2018-05-31T15:35:34.331Z,41.80
2018-05-31T15:38:02.549Z,41.90
2018-05-31T15:40:30.826Z,42.80
2018-05-31T15:42:59.579Z,43.00
2018-05-31T15:45:27.839Z,42.60
2018-05-31T15:47:56.864Z,43.00
2018-05-31T15:50:25.135Z,43.10
2018-05-31T15:52:53.397Z,43.90
2018-05-31T15:55:21.664Z,43.10
2018-05-31T15:57:49.948Z,44.30
2018-05-31T16:00:18.229Z,43.20
2018-05-31T16:02:46.478Z,43.50
2018-05-31T16:05:15.499Z,42.40
2018-05-31T16:07:43.784Z,42.40
2018-05-31T16:10:12.045Z,42.50
2018-05-31T16:12:40.335Z,43.10
2018-05-31T16:15:09.395Z,42.90
2018-05-31T16:17:37.679Z,42.80
2018-05-31T16:20:05.937Z,42.90
2018-05-31T16:22:34.968Z,42.60
2018-05-31T16:25:03.223Z,42.60
2018-05-31T16:27:31.482Z,43.40
2018-05-31T16:30:00.529Z,42.40
2018-05-31T16:32:28.771Z,42.40
2018-05-31T16:34:57.043Z,42.20
2018-05-31T16:37:25.291Z,43.10
2018-05-31T16:39:54.314Z,43.50
2018-05-31T16:42:22.686Z,43.40
2018-05-31T16:44:50.936Z,43.20
2018-05-31T16:47:19.951Z,43.00
2018-05-31T16:49:48.209Z,42.90
2018-05-31T16:52:17.278Z,43.70
2018-05-31T16:54:45.540Z,43.80
2018-05-31T16:57:13.795Z,41.80
2018-05-31T16:59:42.072Z,42.60
2018-05-31T17:02:10.475Z,42.60
2018-05-31T17:04:38.731Z,42.50
2018-05-31T17:07:06.999Z,41.60
2018-05-31T17:09:35.284Z,42.40
2018-05-31T17:12:03.541Z,42.40
2018-05-31T17:14:31.801Z,43.10
2018-05-31T17:17:00.067Z,44.20
2018-05-31T17:19:28.339Z,44.10
2018-05-31T17:21:57.357Z,44.00
2018-05-31T17:24:25.641Z,44.00
2018-05-31T17:26:53.896Z,43.90
2018-05-31T17:29:22.176Z,43.40
2018-05-31T17:31:50.500Z,43.90
2018-05-31T17:34:18.688Z,44.00
2018-05-31T17:36:47.713Z,43.80
2018-05-31T17:39:16.120Z,43.70
2018-05-31T17:41:44.363Z,44.00
2018-05-31T17:44:12.619Z,43.70
2018-05-31T17:46:41.903Z,43.90
2018-05-31T17:49:10.193Z,43.90
2018-05-31T17:51:38.426Z,45.50
2018-05-31T17:54:06.694Z,45.50
2018-05-31T17:56:34.956Z,44.00
2018-05-31T17:59:03.199Z,44.10
2018-05-31T18:01:31.795Z,44.10
2018-05-31T18:04:00.049Z,44.20
2018-05-31T18:06:29.059Z,44.20
2018-05-31T18:08:57.327Z,44.20
2018-05-31T18:11:25.593Z,44.20
2018-05-31T18:13:54.609Z,44.30
2018-05-31T18:16:23.115Z,44.20
2018-05-31T18:18:51.403Z,44.40
2018-05-31T18:21:19.653Z,44.20
2018-05-31T18:23:48.011Z,44.40
2018-05-31T18:26:16.343Z,44.50
2018-05-31T18:28:44.601Z,44.20
2018-05-31T18:31:12.886Z,45.10
2018-05-31T18:33:41.191Z,48.10
2018-05-31T18:36:09.583Z,47.10
2018-05-31T18:38:37.837Z,46.70
2018-05-31T18:41:06.146Z,47.10
2018-05-31T18:43:34.419Z,46.90
2018-05-31T18:46:02.664Z,48.10
2018-05-31T18:48:31.679Z,46.30
2018-05-31T18:50:59.939Z,46.20
2018-05-31T18:53:28.971Z,49.30
2018-05-31T18:55:57.226Z,49.30
2018-05-31T18:58:25.480Z,50.20
2018-05-31T19:00:54.493Z,52.70
2018-05-31T19:03:22.876Z,52.60
2018-05-31T19:05:51.992Z,51.00
2018-05-31T19:08:20.234Z,51.00
2018-05-31T19:10:48.496Z,52.00
2018-05-31T19:13:23.100Z,52.30
2018-05-31T19:15:51.372Z,52.20
2018-05-31T19:18:25.592Z,52.10
2018-05-31T19:20:56.552Z,52.60
2018-05-31T19:23:25.060Z,52.40
2018-05-31T19:25:53.318Z,53.20
2018-05-31T19:28:21.834Z,54.70
2018-05-31T19:30:55.644Z,55.50
2018-05-31T19:33:23.915Z,55.60
2018-05-31T19:35:57.714Z,55.40
2018-05-31T19:38:25.973Z,55.50
2018-05-31T19:40:54.242Z,55.50
2018-05-31T19:43:28.063Z,55.50
2018-05-31T19:45:56.381Z,54.70
2018-05-31T19:48:24.767Z,53.90
2018-05-31T19:50:53.796Z,55.40
2018-05-31T19:53:27.829Z,55.30
2018-05-31T19:55:56.075Z,56.10
2018-05-31T19:58:29.898Z,57.40
2018-05-31T20:01:03.787Z,56.80
2018-05-31T20:03:32.055Z,55.50
2018-05-31T20:06:00.391Z,55.30
2018-05-31T20:08:28.636Z,55.50
2018-05-31T20:10:56.892Z,56.20
2018-05-31T20:13:25.155Z,56.90
2018-05-31T20:15:53.431Z,57.20
2018-05-31T20:18:21.796Z,57.50
2018-05-31T20:20:50.875Z,58.50
2018-05-31T20:23:19.080Z,58.50
2018-05-31T20:25:47.403Z,58.90
2018-05-31T20:28:15.644Z,59.60
2018-05-31T20:30:43.913Z,60.20
2018-05-31T20:33:12.159Z,60.10
2018-05-31T20:35:41.204Z,60.00
2018-05-31T20:38:09.460Z,59.90
2018-05-31T20:40:37.711Z,60.00
2018-05-31T20:43:06.742Z,59.20
2018-05-31T20:45:35.008Z,59.10
2018-05-31T20:48:03.293Z,58.80
2018-05-31T20:50:31.567Z,58.80
2018-05-31T20:52:59.813Z,58.80
2018-05-31T20:55:28.079Z,59.00
2018-05-31T20:57:57.115Z,58.20
2018-05-31T21:00:25.375Z,58.20
2018-05-31T21:02:53.627Z,58.20
2018-05-31T21:05:21.900Z,57.90
2018-05-31T21:07:50.939Z,58.80
2018-05-31T21:10:19.198Z,58.80
2018-05-31T21:12:47.446Z,59.20
2018-05-31T21:15:15.719Z,59.20
2018-05-31T21:17:44.755Z,59.90
2018-05-31T21:20:13.033Z,59.90
2018-05-31T21:22:41.302Z,60.00
2018-05-31T21:25:09.639Z,60.00
2018-05-31T21:27:38.675Z,59.40
2018-05-31T21:30:06.947Z,59.30
2018-05-31T21:32:35.226Z,58.80
2018-05-31T21:35:03.548Z,59.00
2018-05-31T21:37:32.724Z,56.30
2018-05-31T21:40:01.006Z,56.20
2018-05-31T21:42:29.304Z,56.70
2018-05-31T21:44:58.576Z,57.80
2018-05-31T21:47:26.861Z,57.80
2018-05-31T21:49:55.884Z,59.20
2018-05-31T21:52:24.156Z,59.10
2018-05-31T21:54:52.416Z,59.20
2018-05-31T21:57:21.451Z,59.80
2018-05-31T21:59:49.696Z,59.80
2018-05-31T22:02:17.960Z,60.40
2018-05-31T22:04:47.146Z,61.10
2018-05-31T22:07:16.181Z,61.60
2018-05-31T22:09:44.480Z,61.60
2018-05-31T22:12:12.745Z,62.20
2018-05-31T22:14:40.993Z,62.10
2018-05-31T22:17:09.517Z,62.20
2018-05-31T22:19:38.519Z,61.80
2018-05-31T22:22:06.784Z,61.80
2018-05-31T22:24:35.058Z,62.20
2018-05-31T22:27:03.376Z,63.80
2018-05-31T22:29:32.403Z,65.40
2018-05-31T22:32:00.662Z,65.40
2018-05-31T22:34:28.944Z,65.60
2018-05-31T22:36:57.173Z,65.40
2018-05-31T22:39:26.183Z,66.20
2018-05-31T22:41:54.463Z,66.20
2018-05-31T22:44:22.717Z,66.60
2018-05-31T22:46:50.990Z,66.50
2018-05-31T22:49:19.248Z,66.40
2018-05-31T22:51:47.549Z,67.30
2018-05-31T22:54:16.569Z,67.80
2018-05-31T22:56:44.836Z,67.70
2018-05-31T22:59:13.100Z,68.10
2018-05-31T23:01:42.112Z,69.10
2018-05-31T23:04:10.371Z,69.00
2018-05-31T23:06:39.390Z,69.50
2018-05-31T23:09:08.408Z,69.60
2018-05-31T23:11:36.678Z,69.50
2018-05-31T23:14:04.943Z,69.60
2018-05-31T23:16:33.967Z,69.60
2018-05-31T23:19:02.224Z,69.60
2018-05-31T23:21:30.475Z,69.20
2018-05-31T23:23:58.775Z,70.00
2018-05-31T23:26:27.030Z,70.40
2018-05-31T23:28:55.271Z,70.50
2018-05-31T23:31:24.297Z,69.50
2018-05-31T23:33:52.547Z,69.40
2018-05-31T23:36:21.595Z,69.50
2018-05-31T23:38:49.866Z,69.50
2018-05-31T23:41:18.135Z,68.80
2018-05-31T23:43:46.686Z,68.60
2018-05-31T23:46:14.941Z,68.50
2018-05-31T23:48:43.952Z,68.10
2018-05-31T23:51:12.221Z,68.00
2018-05-31T23:53:40.468Z,67.90
2018-05-31T23:56:09.492Z,67.70
2018-05-31T23:58:37.743Z,67.60
